createdAt,value
2023-03-22T00:00:39.555Z,47.24
2023-03-22T00:03:42.659Z,47.06
2023-03-22T00:06:45.762Z,47.04
2023-03-22T00:09:48.706Z,47.06
2023-03-22T00:12:53.130Z,47.03
2023-03-22T00:15:57.728Z,47.06
2023-03-22T00:19:00.593Z,47.08
2023-03-22T00:22:06.283Z,47.13
2023-03-22T00:25:09.571Z,47.04
2023-03-22T00:28:14.610Z,46.87
2023-03-22T00:31:17.711Z,46.96
2023-03-22T00:34:20.662Z,46.92
2023-03-22T00:37:23.512Z,46.91
2023-03-22T00:40:26.375Z,46.89
2023-03-22T00:43:30.619Z,46.98
2023-03-22T00:46:33.552Z,46.97
2023-03-22T00:49:37.590Z,46.97
2023-03-22T00:52:40.496Z,46.97
2023-03-22T00:55:43.824Z,46.84
2023-03-22T00:58:48.266Z,46.97
2023-03-22T01:01:51.214Z,46.85
2023-03-22T01:04:54.195Z,46.89
2023-03-22T01:07:58.606Z,46.89
2023-03-22T01:11:02.047Z,46.80
2023-03-22T01:14:06.229Z,46.92
2023-03-22T01:17:09.379Z,46.93
2023-03-22T01:20:13.758Z,46.96
2023-03-22T01:23:16.810Z,46.94
2023-03-22T01:26:19.691Z,46.88
2023-03-22T01:29:24.061Z,46.96
2023-03-22T01:32:27.039Z,47.01
2023-03-22T01:35:30.764Z,46.99
2023-03-22T01:38:33.896Z,47.01
2023-03-22T01:41:38.614Z,46.94
2023-03-22T01:45:21.342Z,46.97
2023-03-22T01:48:29.320Z,46.81
2023-03-22T01:51:32.339Z,46.94
2023-03-22T01:54:53.811Z,46.90
2023-03-22T01:58:08.703Z,46.96
2023-03-22T02:01:27.309Z,46.75
2023-03-22T02:04:36.761Z,46.89
2023-03-22T02:07:43.177Z,46.90
2023-03-22T02:10:46.821Z,47.03
2023-03-22T02:14:15.625Z,47.01
2023-03-22T02:17:51.178Z,47.01
2023-03-22T02:21:32.073Z,46.97
2023-03-22T02:25:20.629Z,46.92
2023-03-22T02:28:34.659Z,46.87
2023-03-22T02:31:51.750Z,47.00
2023-03-22T02:35:28.844Z,46.99
2023-03-22T02:39:01.513Z,46.91
2023-03-22T02:42:17.479Z,46.88
2023-03-22T02:45:29.155Z,46.97
2023-03-22T02:48:37.973Z,46.96
2023-03-22T02:51:45.269Z,46.94
2023-03-22T02:54:53.608Z,47.08
2023-03-22T02:57:59.242Z,47.00
2023-03-22T03:01:06.775Z,46.93
2023-03-22T03:04:15.196Z,47.02
2023-03-22T03:07:22.825Z,46.93
2023-03-22T03:10:28.723Z,46.98
2023-03-22T03:13:31.965Z,46.95
2023-03-22T03:16:36.673Z,46.94
2023-03-22T03:19:46.324Z,46.93
2023-03-22T03:22:59.230Z,46.88
2023-03-22T03:26:08.270Z,46.89
2023-03-22T03:29:18.699Z,46.98
2023-03-22T03:32:27.786Z,46.91
2023-03-22T03:35:37.709Z,46.92
2023-03-22T03:38:45.179Z,46.90
2023-03-22T03:41:52.513Z,46.92
2023-03-22T03:44:57.305Z,46.80
2023-03-22T03:48:05.112Z,46.83
2023-03-22T03:51:08.919Z,46.72
2023-03-22T03:54:12.083Z,46.75
2023-03-22T03:57:17.492Z,46.88
2023-03-22T04:00:20.932Z,46.73
2023-03-22T04:03:50.674Z,46.79
2023-03-22T04:07:07.568Z,46.86
2023-03-22T04:10:13.129Z,46.79
2023-03-22T04:13:18.319Z,46.73
2023-03-22T04:16:21.416Z,46.84
2023-03-22T04:19:25.056Z,46.76
2023-03-22T04:22:28.155Z,46.73
2023-03-22T04:25:33.913Z,46.80
2023-03-22T04:28:45.409Z,46.68
2023-03-22T04:31:48.847Z,46.71
2023-03-22T04:35:01.666Z,46.74
2023-03-22T04:38:04.914Z,46.69
2023-03-22T04:41:09.372Z,46.71
2023-03-22T04:44:18.802Z,46.75
2023-03-22T04:47:26.096Z,46.66
2023-03-22T04:50:29.249Z,46.77
2023-03-22T04:53:38.976Z,46.82
2023-03-22T04:56:43.058Z,46.77
2023-03-22T04:59:47.567Z,46.77
2023-03-22T05:02:50.783Z,46.74
2023-03-22T05:06:03.466Z,46.82
2023-03-22T05:09:16.576Z,46.69
2023-03-22T05:12:19.832Z,46.69
2023-03-22T05:15:44.471Z,46.71
2023-03-22T05:18:54.340Z,46.67
2023-03-22T05:22:01.848Z,46.75
2023-03-22T05:25:23.039Z,46.76
2023-03-22T05:28:28.487Z,46.71
2023-03-22T05:31:53.079Z,46.71
2023-03-22T05:34:56.874Z,46.75
2023-03-22T05:38:11.777Z,46.79
2023-03-22T05:41:20.384Z,46.77
2023-03-22T05:44:23.624Z,46.73
2023-03-22T05:47:43.819Z,46.75
2023-03-22T05:50:50.177Z,46.66
2023-03-22T05:53:54.533Z,46.69
2023-03-22T05:57:01.862Z,46.69
2023-03-22T06:00:10.439Z,46.71
2023-03-22T06:03:18.303Z,46.64
2023-03-22T06:06:29.282Z,46.67
2023-03-22T06:09:52.555Z,46.72
2023-03-22T06:12:58.956Z,46.70
2023-03-22T06:16:07.143Z,46.76
2023-03-22T06:19:11.539Z,46.90
2023-03-22T06:22:14.851Z,47.02
2023-03-22T06:25:19.079Z,47.10
2023-03-22T06:28:23.281Z,47.12
2023-03-22T06:31:29.600Z,47.16
2023-03-22T06:34:40.480Z,47.27
2023-03-22T06:37:44.974Z,47.11
2023-03-22T06:40:47.958Z,47.22
2023-03-22T06:43:50.902Z,47.12
2023-03-22T06:47:11.975Z,47.08
2023-03-22T06:50:22.452Z,47.06
2023-03-22T06:53:46.397Z,47.06
2023-03-22T06:56:49.612Z,47.02
2023-03-22T06:59:52.801Z,47.03
2023-03-22T07:02:55.791Z,47.12
2023-03-22T07:06:12.577Z,47.10
2023-03-22T07:09:19.434Z,47.26
2023-03-22T07:12:24.980Z,47.33
2023-03-22T07:15:28.630Z,47.44
2023-03-22T07:18:38.572Z,47.48
2023-03-22T07:21:42.894Z,47.55
2023-03-22T07:24:56.702Z,47.55
2023-03-22T07:28:02.061Z,47.72
2023-03-22T07:31:09.965Z,47.74
2023-03-22T07:34:22.198Z,47.75
2023-03-22T07:37:38.150Z,47.85
2023-03-22T07:40:46.711Z,47.91
2023-03-22T07:43:55.406Z,47.79
2023-03-22T07:46:59.834Z,47.96
2023-03-22T07:50:11.790Z,48.22
2023-03-22T07:53:16.272Z,47.94
2023-03-22T07:56:21.037Z,47.99
2023-03-22T07:59:24.973Z,47.95
2023-03-22T08:02:28.206Z,47.87
2023-03-22T08:05:33.573Z,47.94
2023-03-22T08:08:40.170Z,47.84
2023-03-22T08:11:43.152Z,47.77
2023-03-22T08:14:50.511Z,47.82
2023-03-22T08:17:59.097Z,47.82
2023-03-22T08:21:10.559Z,47.89
2023-03-22T08:24:16.355Z,47.76
2023-03-22T08:27:37.938Z,47.87
2023-03-22T08:30:41.403Z,47.82
2023-03-22T08:33:45.153Z,47.89
2023-03-22T08:36:49.043Z,47.76
2023-03-22T08:39:53.398Z,47.73
2023-03-22T08:42:56.352Z,47.87
2023-03-22T08:45:59.771Z,47.75
2023-03-22T08:49:03.620Z,47.78
2023-03-22T08:52:14.440Z,47.88
2023-03-22T08:55:35.408Z,47.89
2023-03-22T08:58:48.013Z,47.78
2023-03-22T09:02:03.864Z,47.15
2023-03-22T09:05:08.102Z,47.30
2023-03-22T09:08:18.443Z,47.26
2023-03-22T09:11:25.561Z,47.24
2023-03-22T09:14:28.722Z,47.36
2023-03-22T09:17:31.818Z,47.24
2023-03-22T09:20:35.053Z,47.30
2023-03-22T09:23:40.203Z,47.38
2023-03-22T09:26:46.030Z,47.57
2023-03-22T09:29:53.046Z,47.62
2023-03-22T09:32:56.179Z,47.77
2023-03-22T09:35:59.646Z,47.78
2023-03-22T09:39:06.676Z,47.77
2023-03-22T09:42:26.674Z,47.77
2023-03-22T09:45:38.556Z,47.81
2023-03-22T09:48:44.242Z,47.82
2023-03-22T09:51:48.732Z,47.73
2023-03-22T09:54:53.240Z,47.82
2023-03-22T09:58:06.256Z,47.84
2023-03-22T10:01:20.727Z,47.87
2023-03-22T10:04:41.653Z,47.88
2023-03-22T10:08:00.558Z,47.75
2023-03-22T10:11:03.885Z,47.79
2023-03-22T10:14:23.534Z,47.81
2023-03-22T10:17:29.217Z,47.80
2023-03-22T10:20:40.493Z,47.75
2023-03-22T10:23:48.536Z,47.55
2023-03-22T10:26:52.945Z,47.51
2023-03-22T10:30:02.399Z,47.41
2023-03-22T10:33:13.594Z,47.42
2023-03-22T10:36:18.377Z,47.69
2023-03-22T10:39:30.629Z,47.80
2023-03-22T10:42:37.777Z,47.78
2023-03-22T10:45:43.460Z,47.76
2023-03-22T10:48:49.061Z,47.74
2023-03-22T10:51:56.685Z,47.76
2023-03-22T10:55:03.686Z,47.77
2023-03-22T10:58:14.867Z,47.73
2023-03-22T11:01:27.371Z,47.82
2023-03-22T11:04:33.436Z,47.63
2023-03-22T11:07:38.759Z,47.85
2023-03-22T11:10:41.794Z,47.75
2023-03-22T11:13:50.490Z,47.76
2023-03-22T11:16:58.848Z,47.81
2023-03-22T11:20:07.824Z,47.75
2023-03-22T11:23:13.986Z,47.85
2023-03-22T11:26:28.210Z,47.79
2023-03-22T11:29:41.141Z,47.80
2023-03-22T11:32:45.500Z,47.74
2023-03-22T11:35:54.829Z,47.82
2023-03-22T11:38:59.948Z,47.76
2023-03-22T11:42:06.697Z,47.84
2023-03-22T11:45:15.913Z,47.85
2023-03-22T11:48:24.147Z,47.77
2023-03-22T11:51:30.950Z,47.77
2023-03-22T11:54:38.101Z,47.77
2023-03-22T11:57:41.082Z,47.85
2023-03-22T12:00:44.144Z,47.80
2023-03-22T12:03:55.967Z,47.82
2023-03-22T12:07:01.407Z,47.77
2023-03-22T12:10:07.914Z,47.66
2023-03-22T12:13:18.979Z,47.74
2023-03-22T12:16:25.809Z,47.71
2023-03-22T12:19:45.533Z,47.73
2023-03-22T12:22:52.748Z,47.60
2023-03-22T12:26:01.304Z,47.78
2023-03-22T12:29:08.283Z,47.71
2023-03-22T12:32:18.857Z,47.72
2023-03-22T12:35:26.426Z,47.87
2023-03-22T12:38:39.655Z,47.82
2023-03-22T12:41:46.939Z,47.93
2023-03-22T12:45:02.627Z,47.92
2023-03-22T12:48:15.006Z,48.03
2023-03-22T12:51:19.572Z,47.89
2023-03-22T12:54:25.183Z,48.06
2023-03-22T12:57:28.801Z,47.93
2023-03-22T13:00:37.794Z,47.96
2023-03-22T13:03:47.327Z,48.00
2023-03-22T13:07:08.693Z,47.92
2023-03-22T13:10:48.759Z,47.98
2023-03-22T13:13:51.750Z,47.83
2023-03-22T13:17:00.248Z,47.86
2023-03-22T13:20:25.644Z,47.92
2023-03-22T13:23:30.023Z,47.79
2023-03-22T13:26:38.276Z,47.96
2023-03-22T13:29:41.930Z,47.86
2023-03-22T13:32:54.604Z,47.69
2023-03-22T13:36:00.213Z,47.88
2023-03-22T13:39:12.329Z,47.89
2023-03-22T13:42:21.161Z,47.87
2023-03-22T13:45:32.406Z,47.88
2023-03-22T13:48:52.258Z,47.83
2023-03-22T13:51:58.347Z,47.72
2023-03-22T13:55:02.934Z,47.66
2023-03-22T13:58:10.090Z,47.71
2023-03-22T14:01:17.257Z,47.82
2023-03-22T14:04:26.765Z,48.13
2023-03-22T14:07:33.924Z,48.06
2023-03-22T14:10:44.380Z,47.93
2023-03-22T14:13:52.419Z,48.08
2023-03-22T14:17:02.823Z,47.99
2023-03-22T14:20:10.522Z,48.11
